Time;durP1;ratioP1;P1;durP2;ratioP2;P2;SDS_P1;SDS_P2;PMS_P1;PMS_P2;Temp;Humidity;BMP_temperature;BMP_pressure;BME280_temperature;BME280_humidity;BME280_pressure;Samples;Min_cycle;Max_cycle;Signal;HPM_P1;HPM_P2
2022/04/26 03:36:12;;;;;;;10.80;6.85;;;13.20;57.40;;;6.38;91.55;101327.13;172768;28;1197;-64
2022/04/26 03:36:18;;;;;;;9.80;6.75;;;13.20;57.40;;;6.35;91.28;101332.34;172673;28;1224;-64
2022/04/26 03:36:23;;;;;;;10.07;6.68;;;13.20;57.40;;;6.37;91.41;101330.56;172643;28;986;-65
2022/04/26 03:36:29;;;;;;;10.18;6.72;;;13.20;57.30;;;6.39;91.44;101327.94;172723;28;938;-65
2022/04/26 03:36:35;;;;;;;10.40;6.77;;;13.20;57.30;;;6.39;91.33;101323.63;172687;28;922;-65
2022/04/26 03:36:41;;;;;;;9.38;6.78;;;13.20;57.30;;;6.38;91.95;101324.53;172753;28;902;-65
2022/04/26 03:36:47;;;;;;;9.03;6.70;;;13.20;57.30;;;6.39;91.23;101328.81;172758;28;1069;-65
2022/04/26 03:36:52;;;;;;;9.00;6.70;;;13.20;57.30;;;6.44;91.49;101327.00;172725;28;1030;-65
2022/04/26 03:36:59;;;;;;;8.53;6.70;;;13.20;57.30;;;6.49;91.70;101323.47;172728;28;1088;-65
2022/04/26 03:37:08;;;;;;;7.88;6.60;;;13.20;57.30;;;6.47;91.80;101328.69;172719;28;883;-65
2022/04/26 03:37:17;;;;;;;7.94;6.49;;;13.20;57.30;;;6.54;91.08;101332.03;172697;28;1033;-64
2022/04/26 03:37:23;;;;;;;8.29;6.53;;;13.20;57.40;;;6.63;91.54;101329.28;172714;28;1057;-64
2022/04/26 03:37:31;;;;;;;7.78;6.60;;;13.20;57.40;;;6.66;91.21;101326.63;172711;28;945;-65
2022/04/26 03:37:37;;;;;;;8.40;6.85;;;13.20;57.50;;;6.70;90.74;101330.88;172742;28;986;-65
2022/04/26 03:37:45;;;;;;;9.20;6.95;;;13.20;57.50;;;6.73;90.94;101336.88;172706;28;867;-64
2022/04/26 03:37:50;;;;;;;9.35;7.08;;;13.20;57.60;;;6.76;90.98;101329.91;172715;28;958;-65
2022/04/26 03:37:56;;;;;;;10.43;7.30;;;13.20;57.60;;;6.77;90.70;101335.97;172705;28;1080;-64
2022/04/26 03:38:02;;;;;;;10.70;7.17;;;13.20;57.70;;;6.75;90.50;101330.81;172729;28;938;-64
2022/04/26 03:38:07;;;;;;;9.70;7.05;;;13.20;57.70;;;6.76;91.22;101329.91;172761;28;847;-65
2022/04/26 03:38:14;;;;;;;9.68;7.10;;;13.20;57.70;;;6.78;90.50;101324.69;172670;28;915;-64
2022/04/26 03:38:20;;;;;;;9.55;7.07;;;13.20;57.70;;;6.81;91.20;101327.22;172689;28;985;-64
2022/04/26 03:38:25;;;;;;;9.07;6.90;;;13.20;57.80;;;6.83;90.73;101333.22;172716;28;891;-64
2022/04/26 03:38:32;;;;;;;8.68;6.93;;;13.20;57.80;;;6.83;90.86;101323.72;172740;28;911;-64
2022/04/26 03:38:45;;;;;;;9.10;7.07;;;13.20;57.80;;;6.84;90.58;101327.16;172775;28;922;-64
2022/04/26 03:38:52;;;;;;;8.75;7.11;;;13.20;57.90;;;6.72;91.13;101324.78;172689;28;1226;-64
2022/04/26 03:38:58;;;;;;;8.55;6.88;;;13.20;57.90;;;6.65;91.24;101329.25;172686;28;978;-64
2022/04/26 03:39:05;;;;;;;8.13;6.80;;;13.20;57.90;;;6.61;91.30;101331.06;172744;28;851;-64
2022/04/26 03:39:11;;;;;;;8.57;6.63;;;13.20;57.90;;;6.59;91.23;101330.22;172755;28;1033;-65
2022/04/26 03:39:16;;;;;;;8.53;6.67;;;13.20;57.90;;;6.54;91.13;101329.44;172737;28;942;-64
2022/04/26 03:39:22;;;;;;;9.07;6.75;;;13.20;57.90;;;6.51;91.16;101321.72;172731;28;1041;-65
2022/04/26 03:39:28;;;;;;;9.50;6.90;;;13.20;57.90;;;6.47;91.09;101325.25;172728;28;963;-64
2022/04/26 03:39:34;;;;;;;9.50;6.93;;;13.20;57.90;;;6.45;91.30;101330.44;172723;28;974;-65
2022/04/26 03:39:40;;;;;;;8.96;6.88;;;13.20;57.80;;;6.43;91.09;101325.28;172732;28;1041;-64
2022/04/26 03:39:46;;;;;;;8.80;6.73;;;13.20;57.80;;;6.47;91.74;101326.13;172735;28;910;-64
2022/04/26 03:39:52;;;;;;;8.63;6.80;;;13.20;57.80;;;6.48;92.14;101332.13;172724;28;962;-65
2022/04/26 03:39:58;;;;;;;8.88;6.70;;;13.20;57.80;;;6.47;91.28;101335.63;172738;28;839;-65
2022/04/26 03:40:04;;;;;;;9.27;6.70;;;13.20;57.80;;;6.45;91.44;101327.84;172720;28;1029;-64
2022/04/26 03:40:11;;;;;;;9.70;6.80;;;13.20;57.80;;;6.42;92.48;101333.97;172792;28;843;-64
2022/04/26 03:40:16;;;;;;;10.37;6.90;;;13.20;57.80;;;6.44;91.75;101326.16;172795;28;1053;-64
2022/04/26 03:40:22;;;;;;;10.75;7.00;;;13.20;57.80;;;6.41;92.30;101321.88;172683;28;1037;-64
2022/04/26 03:40:28;;;;;;;9.93;6.82;;;13.20;57.80;;;6.46;91.88;101328.72;172755;28;1100;-64
2022/04/26 03:40:33;;;;;;;10.67;6.73;;;13.20;57.80;;;6.49;91.14;101328.66;172748;28;1018;-64
2022/04/26 03:40:39;;;;;;;11.40;6.75;;;13.20;57.80;;;6.54;91.48;101326.84;172783;28;1029;-64
2022/04/26 03:40:45;;;;;;;10.75;6.80;;;13.20;57.80;;;6.59;91.86;101329.34;172774;28;1096;-64
2022/04/26 03:40:50;;;;;;;10.05;6.78;;;13.20;57.80;;;6.63;91.08;101328.41;172747;28;827;-64
2022/04/26 03:40:57;;;;;;;10.47;7.00;;;13.20;57.80;;;6.61;91.32;101328.47;172794;28;859;-65
2022/04/26 03:41:04;;;;;;;9.48;7.12;;;13.20;57.80;;;6.56;91.85;101325.94;172764;28;1048;-65
2022/04/26 03:41:10;;;;;;;8.90;7.30;;;13.20;57.80;;;6.56;91.88;101335.44;172822;28;954;-64
2022/04/26 03:41:16;;;;;;;9.60;7.27;;;13.20;57.80;;;6.61;91.78;101327.59;172797;28;1127;-65
2022/04/26 03:41:22;;;;;;;9.50;7.20;;;13.20;57.80;;;6.63;91.54;101331.00;172802;28;870;-64
2022/04/26 03:41:28;;;;;;;9.82;7.10;;;13.20;57.80;;;6.61;92.18;101322.41;172756;28;696;-64
2022/04/26 03:41:34;;;;;;;9.85;7.10;;;13.20;57.90;;;6.67;91.81;101323.13;172770;28;1045;-64
2022/04/26 03:41:40;;;;;;;9.63;7.10;;;13.20;57.90;;;6.72;91.49;101325.66;172855;28;851;-64
2022/04/26 03:41:45;;;;;;;9.60;7.20;;;13.20;57.90;;;6.77;91.04;101339.38;172751;28;1100;-64
2022/04/26 03:41:52;;;;;;;9.63;7.28;;;13.20;58.00;;;6.79;91.62;101326.41;172738;28;1104;-64
2022/04/26 03:41:57;;;;;;;9.40;7.27;;;13.20;58.00;;;6.79;91.13;101329.00;172778;28;954;-64
2022/04/26 03:42:03;;;;;;;9.60;7.40;;;13.20;58.00;;;6.76;91.44;101324.72;172793;28;989;-64
2022/04/26 03:42:11;;;;;;;9.25;7.43;;;13.20;58.00;;;6.75;91.21;101329.94;172774;28;994;-65
2022/04/26 03:42:16;;;;;;;10.13;7.28;;;13.20;58.00;;;6.76;90.78;101334.22;172740;28;972;-64
2022/04/26 03:42:23;;;;;;;10.43;7.20;;;13.20;58.00;;;6.78;91.11;101332.47;172752;28;918;-64
2022/04/26 03:42:28;;;;;;;10.13;7.20;;;13.20;58.00;;;6.82;90.99;101328.94;172706;28;946;-64
2022/04/26 03:42:35;;;;;;;10.10;7.10;;;13.20;58.00;;;6.84;91.18;101329.75;172691;28;934;-64
2022/04/26 03:42:40;;;;;;;11.60;7.10;;;13.20;58.00;;;6.85;90.47;101322.81;172819;28;1001;-64
2022/04/26 03:42:46;;;;;;;11.47;7.23;;;13.20;58.00;;;6.87;90.84;101329.69;173306;28;907;-64
2022/04/26 03:42:52;;;;;;;11.93;7.32;;;13.20;58.00;;;6.89;90.63;101324.47;173402;28;843;-65
2022/04/26 03:42:57;;;;;;;12.52;7.40;;;13.20;58.10;;;6.83;91.09;101322.84;173396;28;922;-65
2022/04/26 03:43:03;;;;;;;13.50;7.40;;;13.20;58.10;;;6.83;90.59;101325.44;173435;28;926;-64
2022/04/26 03:43:09;;;;;;;12.07;7.25;;;13.20;58.10;;;6.86;90.75;101322.81;173480;28;696;-65
2022/04/26 03:43:14;;;;;;;10.70;7.03;;;13.20;58.10;;;6.87;90.99;101323.66;173406;28;915;-65
2022/04/26 03:43:20;;;;;;;10.53;6.90;;;13.20;58.10;;;6.88;91.07;101326.22;173321;28;1034;-65
2022/04/26 03:43:26;;;;;;;9.88;6.90;;;13.20;58.20;;;6.86;90.77;101328.00;173418;28;949;-65
2022/04/26 03:43:31;;;;;;;9.23;6.95;;;13.20;58.20;;;6.85;90.81;101326.28;173386;28;926;-64
2022/04/26 03:43:37;;;;;;;9.23;7.10;;;13.20;58.20;;;6.86;90.48;101332.31;173465;28;942;-65
2022/04/26 03:43:43;;;;;;;9.23;7.30;;;13.20;58.20;;;6.87;90.55;101334.88;173445;28;941;-65
2022/04/26 03:43:49;;;;;;;9.27;7.53;;;13.20;58.30;;;6.89;91.00;101327.94;173412;28;1056;-64
2022/04/26 03:43:54;;;;;;;9.70;7.50;;;13.20;58.30;;;6.91;91.22;101333.94;172645;28;1441;-64
2022/04/26 03:44:00;;;;;;;10.10;7.50;;;13.20;58.30;;;6.90;91.08;101329.66;172746;28;855;-64
2022/04/26 03:44:06;;;;;;;9.88;7.32;;;13.20;58.30;;;6.87;90.48;101332.28;172739;28;867;-64
2022/04/26 03:44:11;;;;;;;10.95;7.38;;;13.20;58.30;;;6.80;90.90;101328.09;171986;28;965;-64
2022/04/26 03:44:17;;;;;;;11.43;7.30;;;13.30;58.40;;;6.69;90.63;101331.75;172046;28;1046;-65
2022/04/26 03:44:23;;;;;;;11.85;7.28;;;13.20;58.30;;;6.65;90.24;101324.94;172043;28;1081;-64
2022/04/26 03:44:29;;;;;;;12.85;7.35;;;13.20;58.30;;;6.62;90.24;101330.16;172051;28;919;-64
2022/04/26 03:44:35;;;;;;;13.45;7.38;;;13.20;58.30;;;6.56;90.70;101325.94;171999;28;895;-65
2022/04/26 03:44:42;;;;;;;14.18;7.35;;;13.20;58.30;;;6.55;91.03;101331.16;172072;28;848;-64
2022/04/26 03:44:48;;;;;;;13.42;7.22;;;13.20;58.20;;;6.60;91.46;101333.66;172049;28;891;-64
2022/04/26 03:44:53;;;;;;;12.40;7.13;;;13.30;58.20;;;6.64;91.36;101328.38;172049;28;915;-64
2022/04/26 03:44:59;;;;;;;11.57;7.10;;;13.20;58.10;;;6.67;91.67;101330.91;172028;28;1026;-65
2022/04/26 03:45:06;;;;;;;10.90;7.13;;;13.20;58.10;;;6.69;90.98;101329.16;172051;28;1025;-64
2022/04/26 03:45:11;;;;;;;9.36;7.02;;;13.20;58.10;;;6.64;90.68;101325.78;171933;28;1010;-64
2022/04/26 03:45:17;;;;;;;8.35;6.88;;;13.20;58.10;;;6.61;91.20;101332.78;172042;28;1093;-65
2022/04/26 03:45:23;;;;;;;8.13;6.63;;;13.20;58.10;;;6.56;90.49;101332.84;172032;28;906;-64
2022/04/26 03:45:29;;;;;;;7.97;6.50;;;13.20;58.10;;;6.52;90.69;101328.59;172021;28;681;-64
2022/04/26 03:45:35;;;;;;;7.65;6.47;;;13.20;58.00;;;6.49;90.85;101326.06;172028;28;922;-64
2022/04/26 03:45:40;;;;;;;8.87;6.47;;;13.20;58.00;;;6.47;90.96;101330.44;172088;28;1132;-64
2022/04/26 03:45:46;;;;;;;9.55;6.43;;;13.20;58.00;;;6.44;90.74;101332.19;172045;28;848;-64
2022/04/26 03:45:53;;;;;;;10.00;6.63;;;13.20;58.00;;;6.42;91.63;101330.50;172234;28;848;-64
2022/04/26 03:45:58;;;;;;;10.03;6.77;;;13.20;57.90;;;6.41;91.51;101332.25;172745;28;914;-65
2022/04/26 03:46:04;;;;;;;10.23;6.80;;;13.20;57.90;;;6.40;92.20;101329.69;172717;28;859;-64
2022/04/26 03:46:10;;;;;;;9.20;6.83;;;13.20;57.90;;;6.40;92.41;101340.06;173136;28;1061;-64
2022/04/26 03:46:16;;;;;;;8.95;6.97;;;13.20;57.90;;;6.39;92.44;101328.81;173402;28;1147;-65
2022/04/26 03:46:22;;;;;;;8.70;7.00;;;13.20;57.90;;;6.40;91.64;101332.28;173428;28;992;-65
2022/04/26 03:46:27;;;;;;;9.18;6.97;;;13.20;57.90;;;6.39;92.41;101334.00;173401;28;1045;-65
2022/04/26 03:46:33;;;;;;;9.63;6.88;;;13.20;57.90;;;6.40;91.81;101335.72;173419;28;835;-65
2022/04/26 03:46:39;;;;;;;9.60;6.80;;;13.20;57.90;;;6.40;92.22;101335.72;173375;28;1038;-65
2022/04/26 03:46:44;;;;;;;9.50;6.90;;;13.20;57.90;;;6.40;91.99;101334.88;173331;28;1112;-64
2022/04/26 03:46:50;;;;;;;9.73;6.93;;;13.20;57.90;;;6.40;92.64;101333.13;173412;28;875;-64
2022/04/26 03:46:57;;;;;;;9.73;6.90;;;13.20;57.90;;;6.46;92.42;101339.94;173432;28;1025;-64
2022/04/26 03:47:03;;;;;;;9.84;6.88;;;13.20;57.90;;;6.50;92.52;101330.38;173411;28;886;-64
2022/04/26 03:47:09;;;;;;;10.63;7.03;;;13.20;57.90;;;6.53;92.01;101332.91;173354;28;970;-64
2022/04/26 03:47:15;;;;;;;10.73;7.03;;;13.20;58.00;;;6.51;92.18;101326.91;172703;28;1068;-64
2022/04/26 03:47:20;;;;;;;11.20;7.20;;;13.20;58.00;;;6.50;92.59;101335.56;172775;28;1088;-64
2022/04/26 03:47:26;;;;;;;10.65;7.20;;;13.20;58.00;;;6.47;92.56;101330.44;172790;28;1033;-64
2022/04/26 03:47:31;;;;;;;9.97;7.20;;;13.20;58.00;;;6.46;92.20;101333.91;172816;28;1076;-64
2022/04/26 03:47:37;;;;;;;9.50;7.13;;;13.20;58.10;;;6.48;92.27;101335.59;172798;28;1089;-64
2022/04/26 03:47:43;;;;;;;9.73;7.05;;;13.20;58.10;;;6.54;92.58;101332.03;172767;28;843;-65
2022/04/26 03:47:49;;;;;;;10.23;6.97;;;13.20;58.10;;;6.57;92.13;101332.81;172771;28;804;-65
2022/04/26 03:47:54;;;;;;;10.82;7.00;;;13.20;58.10;;;6.56;92.57;101335.44;172787;28;883;-65
2022/04/26 03:48:00;;;;;;;11.00;7.07;;;13.20;58.10;;;6.54;92.42;101332.88;172736;28;1109;-64
2022/04/26 03:48:06;;;;;;;11.23;7.30;;;13.20;58.10;;;6.59;92.48;101330.22;172620;28;1275;-64
2022/04/26 03:48:12;;;;;;;10.77;7.30;;;13.20;58.10;;;6.64;92.30;101338.75;172712;28;938;-65
2022/04/26 03:48:17;;;;;;;10.45;7.13;;;13.20;58.10;;;6.68;92.07;101335.22;172713;28;1041;-65
2022/04/26 03:48:23;;;;;;;9.77;7.07;;;13.20;58.10;;;6.66;91.83;101334.41;172721;28;950;-65
2022/04/26 03:48:29;;;;;;;9.57;7.07;;;13.20;58.10;;;6.66;91.92;101334.41;172721;28;1038;-64
2022/04/26 03:48:34;;;;;;;9.95;7.10;;;13.20;58.10;;;6.66;92.31;101337.00;172732;28;959;-65
2022/04/26 03:48:40;;;;;;;10.67;7.33;;;13.20;58.20;;;6.69;92.26;101334.34;172724;28;1033;-65
2022/04/26 03:48:46;;;;;;;10.13;7.57;;;13.20;58.20;;;6.68;91.43;101332.63;172673;28;1001;-65
2022/04/26 03:48:52;;;;;;;10.07;7.60;;;13.20;58.20;;;6.65;91.66;101337.88;172671;28;1065;-64
2022/04/26 03:48:58;;;;;;;10.43;7.57;;;13.20;58.20;;;6.62;91.57;101335.34;172734;28;986;-64
2022/04/26 03:49:04;;;;;;;10.32;7.60;;;13.20;58.20;;;6.59;92.60;101334.53;172730;28;1057;-65
2022/04/26 03:49:09;;;;;;;9.67;7.40;;;13.20;58.30;;;6.56;92.01;101331.13;172749;28;1084;-65
2022/04/26 03:49:15;;;;;;;9.73;7.18;;;13.20;58.30;;;6.55;92.14;101338.94;172718;28;1073;-65
2022/04/26 03:49:23;;;;;;;9.30;7.22;;;13.20;58.30;;;6.55;92.40;101331.16;172705;28;1088;-64
2022/04/26 03:49:29;;;;;;;8.83;7.18;;;13.20;58.30;;;6.57;92.50;101340.59;172622;28;1246;-65
2022/04/26 03:49:35;;;;;;;8.13;7.00;;;13.20;58.30;;;6.60;91.80;101334.50;172763;28;1048;-64
2022/04/26 03:49:41;;;;;;;7.93;6.93;;;13.20;58.20;;;6.57;92.52;101337.19;172781;28;989;-64
2022/04/26 03:49:47;;;;;;;7.88;7.07;;;13.20;58.30;;;6.61;92.02;101328.47;172720;28;930;-64
2022/04/26 03:49:52;;;;;;;7.82;7.00;;;13.20;58.30;;;6.61;92.18;101337.97;172681;28;1045;-64
2022/04/26 03:49:58;;;;;;;9.13;7.10;;;13.20;58.30;;;6.59;92.63;101334.53;172633;28;982;-64
2022/04/26 03:50:05;;;;;;;9.23;7.10;;;13.20;58.30;;;6.66;92.06;101334.41;172743;28;958;-65
2022/04/26 03:50:11;;;;;;;10.70;7.26;;;13.20;58.30;;;6.69;92.32;101331.75;172672;28;1108;-64
2022/04/26 03:50:16;;;;;;;12.70;7.20;;;13.20;58.40;;;6.70;91.83;101336.06;172717;28;1120;-64
2022/04/26 03:50:22;;;;;;;12.37;7.23;;;13.20;58.40;;;6.69;92.05;101336.94;172729;28;1049;-64
2022/04/26 03:50:28;;;;;;;11.15;7.22;;;13.20;58.30;;;6.72;91.61;101330.84;172743;28;950;-65
2022/04/26 03:50:33;;;;;;;10.82;7.28;;;13.20;58.30;;;6.76;92.09;101336.81;172665;28;1054;-64
2022/04/26 03:50:39;;;;;;;10.80;7.30;;;13.20;58.40;;;6.79;92.03;101341.97;172767;28;970;-65
2022/04/26 03:50:45;;;;;;;9.45;7.47;;;13.20;58.30;;;6.74;92.00;101342.03;172687;28;863;-65
2022/04/26 03:50:51;;;;;;;10.47;7.50;;;13.20;58.40;;;6.70;91.85;101333.47;172702;28;1077;-64
2022/04/26 03:50:56;;;;;;;11.07;7.70;;;13.20;58.40;;;6.65;92.14;101332.72;172618;28;872;-65
2022/04/26 03:51:02;;;;;;;11.37;7.67;;;13.20;58.40;;;6.62;92.33;101340.53;172728;28;1049;-65
2022/04/26 03:51:08;;;;;;;11.23;7.55;;;13.20;58.40;;;6.67;92.46;101338.72;172750;28;780;-65
2022/04/26 03:51:14;;;;;;;10.60;7.38;;;13.20;58.40;;;6.74;92.42;101336.00;172719;28;1065;-65
2022/04/26 03:51:19;;;;;;;10.00;7.28;;;13.20;58.40;;;6.77;91.80;101338.56;171936;28;880;-66
2022/04/26 03:51:25;;;;;;;9.50;7.17;;;13.20;58.40;;;6.78;91.61;101335.06;172109;28;1000;-65
2022/04/26 03:51:31;;;;;;;9.30;7.07;;;13.20;58.40;;;6.80;91.81;101330.69;172706;28;836;-65
2022/04/26 03:51:37;;;;;;;9.18;7.15;;;13.20;58.40;;;6.78;91.46;101335.91;172727;28;926;-65
2022/04/26 03:51:43;;;;;;;9.73;7.13;;;13.20;58.40;;;6.77;91.78;101338.56;172641;28;1979;-65
2022/04/26 03:51:48;;;;;;;10.40;7.20;;;13.20;58.40;;;6.72;91.97;101336.03;172714;28;1050;-65
2022/04/26 03:51:54;;;;;;;11.85;7.15;;;13.20;58.40;;;6.69;91.52;101333.50;172731;28;960;-65
2022/04/26 03:52:00;;;;;;;12.73;7.20;;;13.20;58.40;;;6.67;91.41;101340.47;172040;28;935;-64
2022/04/26 03:52:06;;;;;;;12.77;7.22;;;13.20;58.40;;;6.66;92.01;101338.72;172078;28;934;-65
2022/04/26 03:52:12;;;;;;;13.23;7.33;;;13.20;58.40;;;6.70;91.94;101336.06;172085;28;1131;-65
2022/04/26 03:52:21;;;;;;;13.40;7.25;;;13.20;58.40;;;6.73;92.01;101342.94;171308;28;1429;-65
2022/04/26 03:52:26;;;;;;;12.19;7.36;;;13.20;58.40;;;6.72;92.36;101333.44;171344;28;1063;-65
2022/04/26 03:52:32;;;;;;;11.97;7.37;;;13.20;58.40;;;6.66;92.27;101342.19;171389;28;895;-65
2022/04/26 03:52:41;;;;;;;11.88;7.22;;;13.20;58.40;;;6.61;92.53;101335.38;171396;28;860;-64
2022/04/26 03:52:47;;;;;;;11.03;7.19;;;13.20;58.40;;;6.53;92.32;101326.00;171373;28;1061;-65
2022/04/26 03:52:53;;;;;;;11.18;7.20;;;13.20;58.50;;;6.50;91.88;101341.59;171361;28;922;-64
2022/04/26 03:52:59;;;;;;;10.70;7.12;;;13.20;58.50;;;6.48;92.29;101337.31;172008;28;982;-65
2022/04/26 03:53:05;;;;;;;10.80;7.20;;;13.20;58.50;;;6.45;92.25;101335.63;172072;28;824;-65
2022/04/26 03:53:10;;;;;;;11.13;7.25;;;13.20;58.50;;;6.45;92.20;101338.22;171346;28;868;-65
2022/04/26 03:53:16;;;;;;;10.82;7.30;;;13.20;58.40;;;6.47;92.45;101335.63;171451;28;1054;-65
2022/04/26 03:53:22;;;;;;;10.73;7.20;;;13.20;58.40;;;6.54;92.92;101337.22;172074;28;1061;-65
2022/04/26 03:53:27;;;;;;;11.35;7.35;;;13.20;58.40;;;6.57;92.22;101337.19;172044;28;1124;-65
2022/04/26 03:53:34;;;;;;;10.98;7.30;;;13.20;58.40;;;6.58;92.95;101344.06;172080;28;863;-65
2022/04/26 03:53:40;;;;;;;10.13;7.22;;;13.20;58.40;;;6.55;93.01;101336.34;172086;28;958;-64
2022/04/26 03:53:49;;;;;;;10.07;7.10;;;13.20;58.40;;;6.52;92.38;101332.06;172084;28;918;-65
2022/04/26 03:53:54;;;;;;;9.70;7.10;;;13.20;58.40;;;6.56;92.42;101335.44;172008;28;1057;-65
2022/04/26 03:54:00;;;;;;;8.93;7.10;;;13.20;58.40;;;6.61;92.31;101333.66;172056;28;1034;-65
2022/04/26 03:54:05;;;;;;;8.97;7.07;;;13.20;58.40;;;6.64;92.55;101338.75;172046;28;1073;-64
2022/04/26 03:54:11;;;;;;;9.77;7.15;;;13.20;58.40;;;6.67;92.21;101341.28;172070;28;990;-65
2022/04/26 03:54:17;;;;;;;9.53;7.27;;;13.20;58.40;;;6.68;92.38;101343.00;172450;28;855;-65
2022/04/26 03:54:24;;;;;;;9.70;7.32;;;13.20;58.40;;;6.67;92.25;101338.72;172637;28;986;-65
2022/04/26 03:54:30;;;;;;;9.83;7.23;;;13.20;58.50;;;6.69;92.19;101336.94;172738;28;1089;-65
2022/04/26 03:54:36;;;;;;;10.23;7.30;;;13.20;58.50;;;6.73;91.81;101336.88;172742;28;1001;-65
2022/04/26 03:54:41;;;;;;;10.00;7.28;;;13.20;58.50;;;6.75;92.02;101338.59;172749;28;832;-65
2022/04/26 03:54:47;;;;;;;9.82;7.30;;;13.20;58.50;;;6.78;91.72;101341.09;172737;28;855;-64
2022/04/26 03:54:53;;;;;;;9.05;7.10;;;13.20;58.50;;;6.79;91.68;101342.81;172726;28;891;-65
2022/04/26 03:55:03;;;;;;;10.13;7.23;;;13.20;58.50;;;6.83;92.25;101348.81;172618;28;1002;-65
2022/04/26 03:55:09;;;;;;;9.63;7.40;;;13.20;58.60;;;6.85;91.78;101339.25;172954;28;966;-65
2022/04/26 03:55:14;;;;;;;9.40;7.30;;;13.20;58.60;;;6.87;91.41;101339.25;173382;28;970;-66
2022/04/26 03:55:20;;;;;;;10.05;7.50;;;13.20;58.60;;;6.88;91.74;101336.59;173298;28;1037;-64
2022/04/26 03:55:26;;;;;;;9.88;7.57;;;13.20;58.70;;;6.89;91.59;101346.09;173370;28;1744;-65
2022/04/26 03:55:32;;;;;;;9.52;7.53;;;13.20;58.70;;;6.89;92.11;101338.31;173424;28;875;-64
2022/04/26 03:55:37;;;;;;;9.80;7.50;;;13.20;58.70;;;6.89;91.62;101338.31;173393;28;847;-65
2022/04/26 03:55:43;;;;;;;10.10;7.75;;;13.20;58.70;;;6.89;91.19;101340.03;173391;28;1061;-65
2022/04/26 03:55:49;;;;;;;9.95;7.50;;;13.20;58.70;;;6.89;91.35;101338.31;173400;28;1101;-65
2022/04/26 03:55:54;;;;;;;9.70;7.43;;;13.20;58.70;;;6.90;91.84;101340.03;173408;28;985;-64
2022/04/26 03:56:00;;;;;;;9.30;7.40;;;13.20;58.70;;;6.92;91.48;101338.25;173400;28;929;-65
2022/04/26 03:56:07;;;;;;;9.85;7.40;;;13.20;58.70;;;6.92;91.47;101333.03;173435;28;1035;-65
2022/04/26 03:56:13;;;;;;;10.10;7.20;;;13.20;58.70;;;6.94;91.26;101335.63;173432;28;1081;-65
2022/04/26 03:56:18;;;;;;;11.27;7.10;;;13.20;58.70;;;6.91;91.46;101336.53;173423;28;1077;-64
2022/04/26 03:56:24;;;;;;;11.55;7.10;;;13.20;58.70;;;6.84;91.66;101337.53;172769;28;915;-65
2022/04/26 03:56:30;;;;;;;12.05;7.03;;;13.20;58.70;;;6.76;91.58;101339.41;172782;28;860;-65
2022/04/26 03:56:36;;;;;;;11.73;7.03;;;13.20;58.70;;;6.67;92.17;101341.28;172781;28;851;-65
2022/04/26 03:56:41;;;;;;;11.83;7.23;;;13.20;58.70;;;6.64;91.85;101343.09;172816;28;1076;-65
2022/04/26 03:56:48;;;;;;;11.13;7.40;;;13.20;58.70;;;6.57;91.36;101337.19;172801;28;906;-65
2022/04/26 03:56:53;;;;;;;9.97;7.33;;;13.20;58.70;;;6.53;92.08;101345.88;172801;28;1148;-65
2022/04/26 03:56:59;;;;;;;10.87;7.40;;;13.20;58.70;;;6.50;92.35;101345.94;172789;28;1021;-65
2022/04/26 03:57:06;;;;;;;10.65;7.30;;;13.20;58.60;;;6.47;92.61;101341.66;172704;28;997;-65
2022/04/26 03:57:11;;;;;;;9.70;6.97;;;13.20;58.60;;;6.46;92.65;101342.53;172823;28;1009;-65
2022/04/26 03:57:17;;;;;;;10.35;7.00;;;13.20;58.50;;;6.47;92.31;101341.66;172792;28;1045;-65
2022/04/26 03:57:23;;;;;;;11.07;7.18;;;13.20;58.50;;;6.53;92.22;101341.53;172766;28;875;-65
2022/04/26 03:57:29;;;;;;;10.20;7.20;;;13.20;58.50;;;6.57;92.84;101337.19;172768;28;1097;-66
2022/04/26 03:57:34;;;;;;;10.07;7.30;;;13.20;58.50;;;6.61;92.35;101341.44;172757;28;863;-66
2022/04/26 03:57:40;;;;;;;10.40;7.47;;;13.20;58.50;;;6.66;92.33;101342.19;172822;28;1033;-66
2022/04/26 03:57:46;;;;;;;10.70;7.45;;;13.20;58.50;;;6.68;92.07;101339.56;172738;28;982;-65
2022/04/26 03:57:52;;;;;;;10.50;7.40;;;13.20;58.50;;;6.75;92.00;101341.19;172614;28;1068;-66
2022/04/26 03:57:57;;;;;;;10.55;7.38;;;13.20;58.50;;;6.77;92.41;101343.75;172695;28;1108;-65
2022/04/26 03:58:03;;;;;;;10.43;7.03;;;13.20;58.50;;;6.80;91.93;101343.66;172717;28;1037;-65
2022/04/26 03:58:09;;;;;;;10.30;6.95;;;13.20;58.50;;;6.81;92.49;101345.41;172752;28;926;-66
2022/04/26 03:58:15;;;;;;;9.82;6.88;;;13.20;58.50;;;6.81;92.15;101345.41;172695;28;974;-65
2022/04/26 03:58:20;;;;;;;10.45;6.80;;;13.20;58.50;;;6.82;91.63;101349.69;172702;28;1025;-65
2022/04/26 03:58:26;;;;;;;10.37;6.80;;;13.20;58.60;;;6.83;91.79;101334.09;172699;28;943;-65
2022/04/26 03:58:33;;;;;;;10.30;7.03;;;13.20;58.60;;;6.85;92.03;101344.44;172728;28;927;-66
2022/04/26 03:58:39;;;;;;;9.90;7.22;;;13.20;58.60;;;6.86;91.98;101338.38;172630;28;1158;-65
2022/04/26 03:58:44;;;;;;;9.25;7.30;;;13.20;58.60;;;6.86;91.63;101340.97;172692;28;684;-65
2022/04/26 03:58:50;;;;;;;8.87;7.30;;;13.20;58.60;;;6.88;92.17;101338.34;172723;28;1013;-65
2022/04/26 03:58:55;;;;;;;8.95;7.25;;;13.20;58.70;;;6.91;92.06;101341.72;172648;28;1069;-65
2022/04/26 03:59:01;;;;;;;9.60;7.30;;;13.20;58.70;;;6.92;91.62;101340.84;172715;28;1056;-65
2022/04/26 03:59:07;;;;;;;9.82;7.40;;;13.20;58.70;;;6.93;91.45;101334.78;172643;28;1124;-65
2022/04/26 03:59:13;;;;;;;10.13;7.30;;;13.20;58.70;;;6.94;91.18;101341.66;172671;28;1038;-65
2022/04/26 03:59:19;;;;;;;11.18;7.38;;;13.20;58.70;;;6.97;91.88;101345.09;172606;28;1127;-65
2022/04/26 03:59:25;;;;;;;12.00;7.53;;;13.20;58.70;;;6.97;91.29;101335.56;172714;28;947;-65
2022/04/26 03:59:31;;;;;;;11.35;7.43;;;13.20;58.70;;;6.97;91.84;101340.75;172721;28;1050;-64
2022/04/26 03:59:36;;;;;;;11.85;7.38;;;13.20;58.70;;;6.93;91.11;101334.78;172733;28;907;-65
2022/04/26 03:59:42;;;;;;;12.47;7.57;;;13.20;58.70;;;6.86;91.31;101338.38;172752;28;1096;-65
2022/04/26 03:59:48;;;;;;;11.38;7.60;;;13.20;58.70;;;6.90;91.38;101334.84;172638;28;998;-65
2022/04/26 03:59:54;;;;;;;10.65;7.65;;;13.20;58.70;;;6.92;91.60;101335.63;172722;28;1033;-66
2022/04/26 03:59:59;;;;;;;10.60;7.75;;;13.20;58.70;;;6.94;91.68;101343.41;172696;28;918;-65
2022/04/26 04:00:06;;;;;;;11.17;7.97;;;13.20;58.70;;;6.94;91.39;101341.66;172711;28;950;-66
2022/04/26 04:00:13;;;;;;;11.20;7.86;;;13.20;58.70;;;6.93;91.48;101344.28;172756;28;918;-65
2022/04/26 04:00:19;;;;;;;11.67;7.80;;;13.20;58.70;;;6.94;91.81;101341.66;172720;28;1097;-65
2022/04/26 04:00:26;;;;;;;11.03;7.63;;;13.20;58.70;;;6.95;91.17;101338.19;172735;28;907;-64
2022/04/26 04:00:31;;;;;;;10.77;7.40;;;13.20;58.70;;;6.95;91.75;101343.38;172743;28;887;-64
2022/04/26 04:00:38;;;;;;;10.57;7.43;;;13.20;58.70;;;6.91;91.03;101344.31;172412;28;947;-65
2022/04/26 04:00:43;;;;;;;10.23;7.53;;;13.20;58.70;;;6.91;91.73;101333.94;172074;28;986;-65
2022/04/26 04:00:49;;;;;;;10.38;7.43;;;13.20;58.70;;;6.94;90.87;101339.06;172051;28;995;-65
2022/04/26 04:00:55;;;;;;;11.43;7.50;;;13.20;58.80;;;6.95;91.20;101343.38;172478;28;1093;-65
2022/04/26 04:01:01;;;;;;;11.73;7.63;;;13.20;58.70;;;6.93;91.12;101341.69;172711;28;1017;-65
2022/04/26 04:01:06;;;;;;;10.73;7.50;;;13.20;58.80;;;6.85;90.62;101338.41;172730;28;1038;-66
2022/04/26 04:01:12;;;;;;;10.45;7.15;;;13.20;58.80;;;6.78;90.30;101341.09;172705;28;768;-65
2022/04/26 04:01:18;;;;;;;10.37;7.00;;;13.20;58.70;;;6.73;90.83;101336.88;172690;28;815;-66
2022/04/26 04:01:23;;;;;;;9.90;7.10;;;13.20;58.70;;;6.70;91.34;101337.78;172711;28;1467;-66
2022/04/26 04:01:29;;;;;;;9.57;7.00;;;13.20;58.70;;;6.66;91.19;101342.19;172701;28;707;-64
2022/04/26 04:01:35;;;;;;;10.07;7.00;;;13.20;58.60;;;6.66;90.88;101339.59;172702;28;844;-65
2022/04/26 04:01:41;;;;;;;10.77;7.10;;;13.20;58.60;;;6.69;91.94;101336.94;172706;28;1029;-65
2022/04/26 04:01:47;;;;;;;10.47;7.30;;;13.20;58.60;;;6.76;91.47;101342.00;172746;28;1077;-65
2022/04/26 04:01:53;;;;;;;10.53;7.23;;;13.20;58.50;;;6.78;91.51;101345.44;172803;28;961;-65